Time;durP1;ratioP1;P1;durP2;ratioP2;P2;SDS_P1;SDS_P2;PMS_P1;PMS_P2;Temp;Humidity;BMP_temperature;BMP_pressure;BME280_temperature;BME280_humidity;BME280_pressure;Samples;Min_cycle;Max_cycle;Signal;HPM_P1;HPM_P2
2023/09/23 00:01:41;;;;;;;0.75;0.75;;;11.60;99.90;;;;;;4980018;28;20042;-80
2023/09/23 00:04:07;;;;;;;0.47;0.43;;;11.50;99.90;;;;;;4965441;28;20030;-79
2023/09/23 00:06:39;;;;;;;1.13;0.60;;;11.50;99.90;;;;;;4981836;28;20104;-80
2023/09/23 00:09:28;;;;;;;0.88;0.45;;;11.50;99.90;;;;;;4960443;28;20035;-81
2023/09/23 00:11:54;;;;;;;1.58;0.63;;;11.50;99.90;;;;;;4932912;28;20570;-79
2023/09/23 00:14:21;;;;;;;0.38;0.38;;;11.50;99.90;;;;;;4973536;28;20019;-80
2023/09/23 00:16:47;;;;;;;0.43;0.43;;;11.50;99.90;;;;;;4975921;28;20026;-79
2023/09/23 00:19:13;;;;;;;2.20;0.60;;;11.50;99.90;;;;;;4979020;28;20035;-80
2023/09/23 00:21:39;;;;;;;0.98;0.70;;;11.50;99.90;;;;;;4977855;28;20023;-80
2023/09/23 00:24:05;;;;;;;1.67;0.70;;;11.50;99.90;;;;;;4968872;28;20088;-79
2023/09/23 00:26:32;;;;;;;1.10;0.80;;;11.40;99.90;;;;;;4965234;28;20054;-80
2023/09/23 00:29:11;;;;;;;1.00;0.63;;;11.40;99.90;;;;;;4969442;28;20106;-79
2023/09/23 00:31:37;;;;;;;1.95;0.68;;;11.40;99.90;;;;;;4969513;28;20031;-81
2023/09/23 00:34:03;;;;;;;0.50;0.50;;;11.40;99.90;;;;;;4984425;28;20067;-79
2023/09/23 00:36:30;;;;;;;0.60;0.60;;;11.40;99.90;;;;;;4983760;28;20023;-81
2023/09/23 00:38:56;;;;;;;2.40;0.70;;;11.40;99.90;;;;;;4979909;28;20054;-79
2023/09/23 00:41:25;;;;;;;1.15;0.80;;;11.40;99.90;;;;;;4975272;28;20043;-80
2023/09/23 00:43:50;;;;;;;2.90;1.00;;;11.40;99.90;;;;;;4981141;28;20030;-79
2023/09/23 00:46:21;;;;;;;2.50;0.80;;;11.40;99.90;;;;;;4957301;28;20035;-77
2023/09/23 00:48:48;;;;;;;0.90;0.90;;;11.40;99.90;;;;;;4976719;28;20113;-78
2023/09/23 00:51:16;;;;;;;4.30;0.70;;;11.40;99.90;;;;;;4959999;28;20042;-78
2023/09/23 00:53:45;;;;;;;3.00;0.75;;;11.40;99.90;;;;;;4975938;28;20562;-79
2023/09/23 00:56:12;;;;;;;0.68;0.60;;;11.50;99.90;;;;;;4976381;28;20035;-79
2023/09/23 00:58:41;;;;;;;1.08;0.98;;;11.40;99.90;;;;;;4975815;28;20093;-79
2023/09/23 01:01:08;;;;;;;1.35;0.80;;;11.40;99.90;;;;;;4967465;28;20035;-79
2023/09/23 01:03:38;;;;;;;1.02;0.65;;;11.50;99.90;;;;;;4974008;28;20019;-79
2023/09/23 01:06:14;;;;;;;3.22;0.70;;;11.50;99.90;;;;;;4981935;28;20031;-79
2023/09/23 01:08:42;;;;;;;1.70;0.98;;;11.50;99.90;;;;;;4965861;28;20026;-80
2023/09/23 01:11:07;;;;;;;1.80;1.30;;;11.40;99.90;;;;;;4984867;28;20065;-80
2023/09/23 01:13:34;;;;;;;1.20;1.10;;;11.40;99.90;;;;;;4962846;28;20106;-77
2023/09/23 01:16:06;;;;;;;1.13;0.80;;;11.40;99.90;;;;;;4978323;28;20035;-79
2023/09/23 01:18:32;;;;;;;1.58;0.80;;;11.40;99.90;;;;;;4978929;28;20030;-77
2023/09/23 01:21:00;;;;;;;3.33;1.35;;;11.40;99.90;;;;;;4958488;28;20337;-78
2023/09/23 01:23:26;;;;;;;1.63;1.50;;;11.40;99.90;;;;;;4957801;28;20058;-78
2023/09/23 01:25:52;;;;;;;2.58;1.08;;;11.40;99.90;;;;;;4961340;28;20679;-78
2023/09/23 01:28:18;;;;;;;1.88;1.15;;;11.40;99.90;;;;;;4978454;28;20034;-78
2023/09/23 01:30:45;;;;;;;1.95;1.25;;;11.30;99.90;;;;;;4963630;28;20035;-80
2023/09/23 01:33:13;;;;;;;2.55;1.33;;;11.30;99.90;;;;;;4964618;28;20329;-79
2023/09/23 01:35:41;;;;;;;1.40;1.17;;;11.30;99.90;;;;;;4976951;28;20031;-78
2023/09/23 01:38:07;;;;;;;1.90;1.17;;;11.30;99.90;;;;;;4978400;28;20030;-78
2023/09/23 01:40:36;;;;;;;1.75;1.10;;;11.20;99.90;;;;;;4977980;28;20038;-81
2023/09/23 01:43:02;;;;;;;2.22;1.17;;;11.30;99.90;;;;;;4981600;28;20049;-81
2023/09/23 01:45:28;;;;;;;2.00;1.42;;;11.20;99.90;;;;;;4977777;28;20129;-79
2023/09/23 01:47:56;;;;;;;3.33;1.42;;;11.20;99.90;;;;;;4957840;28;20646;-79
2023/09/23 01:50:23;;;;;;;3.47;1.45;;;11.20;99.90;;;;;;4951491;28;20034;-80
2023/09/23 01:52:49;;;;;;;2.15;1.23;;;11.20;99.90;;;;;;4945077;28;20053;-79
2023/09/23 01:55:17;;;;;;;3.47;1.23;;;11.20;99.90;;;;;;4953805;28;20046;-79
2023/09/23 01:57:43;;;;;;;2.53;1.10;;;11.30;99.90;;;;;;4979529;28;20090;-81
2023/09/23 02:00:14;;;;;;;2.45;1.30;;;11.30;99.90;;;;;;4969341;28;20035;-79
2023/09/23 02:02:41;;;;;;;1.52;1.15;;;11.30;99.90;;;;;;4973866;28;20027;-80
2023/09/23 02:05:08;;;;;;;1.40;1.27;;;11.30;99.90;;;;;;4979366;28;20035;-79
2023/09/23 02:07:37;;;;;;;1.40;1.30;;;11.30;99.90;;;;;;4949390;28;20387;-80
2023/09/23 02:10:08;;;;;;;1.50;1.27;;;11.30;99.90;;;;;;4964825;28;20031;-80
2023/09/23 02:12:35;;;;;;;1.95;1.77;;;11.30;99.90;;;;;;4947223;28;20019;-79
2023/09/23 02:15:00;;;;;;;1.30;1.20;;;11.20;99.90;;;;;;4959236;28;20038;-79
2023/09/23 02:17:26;;;;;;;1.73;1.20;;;11.30;99.90;;;;;;4957313;28;20400;-79
2023/09/23 02:19:53;;;;;;;1.48;1.20;;;11.20;99.90;;;;;;4961677;28;20058;-81
2023/09/23 02:22:19;;;;;;;2.03;1.17;;;11.20;99.90;;;;;;4950719;28;20129;-82
2023/09/23 02:24:46;;;;;;;1.33;1.20;;;11.20;99.90;;;;;;4978033;28;20038;-82
2023/09/23 02:27:12;;;;;;;1.10;0.98;;;11.20;99.90;;;;;;4961906;28;20045;-79
2023/09/23 02:29:40;;;;;;;3.05;1.27;;;11.10;99.90;;;;;;4977094;28;20042;-79
2023/09/23 02:32:06;;;;;;;2.97;1.52;;;11.10;99.90;;;;;;4979078;28;20173;-78
2023/09/23 02:34:32;;;;;;;2.55;2.15;;;11.10;99.90;;;;;;4963736;28;20065;-80
2023/09/23 02:36:58;;;;;;;3.75;1.17;;;11.10;99.90;;;;;;4961020;28;20038;-82
2023/09/23 02:39:23;;;;;;;3.67;1.40;;;11.10;99.90;;;;;;4959836;28;20030;-80
2023/09/23 02:41:50;;;;;;;1.25;1.10;;;11.10;99.90;;;;;;4958172;28;20046;-82
2023/09/23 02:44:19;;;;;;;2.30;1.10;;;11.10;99.90;;;;;;4963325;28;20074;-82
2023/09/23 02:46:49;;;;;;;1.05;0.95;;;11.10;99.90;;;;;;4960073;28;20093;-81
2023/09/23 02:49:16;;;;;;;2.08;1.05;;;11.00;99.90;;;;;;4977405;28;20042;-82
2023/09/23 02:51:44;;;;;;;4.25;1.10;;;11.00;99.90;;;;;;4977155;28;20018;-81
2023/09/23 02:54:13;;;;;;;1.02;1.00;;;11.00;99.90;;;;;;4962599;28;20114;-81
2023/09/23 02:56:40;;;;;;;1.23;1.08;;;11.00;99.90;;;;;;4976292;28;20030;-81
2023/09/23 02:59:13;;;;;;;0.93;0.93;;;11.00;99.90;;;;;;4961911;28;20031;-81
2023/09/23 03:01:51;;;;;;;2.00;1.48;;;11.00;99.90;;;;;;4974912;28;20392;-79
2023/09/23 03:04:24;;;;;;;1.20;1.10;;;11.00;99.90;;;;;;4961059;28;20518;-81
2023/09/23 03:06:56;;;;;;;1.52;1.23;;;11.00;99.90;;;;;;4954517;28;20535;-81
2023/09/23 03:09:25;;;;;;;1.30;1.20;;;11.00;99.90;;;;;;4939570;28;20031;-82
2023/09/23 03:11:57;;;;;;;1.42;1.20;;;11.00;99.90;;;;;;4974644;28;20067;-80
2023/09/23 03:14:35;;;;;;;1.10;1.00;;;11.00;99.90;;;;;;4965953;28;20018;-79
2023/09/23 03:17:03;;;;;;;1.33;1.00;;;11.00;99.90;;;;;;4958885;28;20090;-80
2023/09/23 03:19:31;;;;;;;1.92;1.45;;;11.00;99.90;;;;;;4957792;28;20091;-82
2023/09/23 03:21:58;;;;;;;1.23;1.10;;;11.00;99.90;;;;;;4953663;28;20042;-80
2023/09/23 03:24:25;;;;;;;1.52;1.08;;;11.00;99.90;;;;;;4954156;28;20030;-82
2023/09/23 03:26:55;;;;;;;1.10;1.00;;;11.10;99.90;;;;;;4956445;28;20126;-81
2023/09/23 03:29:28;;;;;;;5.32;1.30;;;11.10;99.90;;;;;;4962902;28;20050;-80
2023/09/23 03:32:01;;;;;;;2.40;1.13;;;11.00;99.90;;;;;;4971109;28;20135;-80
2023/09/23 03:34:29;;;;;;;1.67;1.00;;;11.10;99.90;;;;;;4965752;28;20301;-81
2023/09/23 03:37:16;;;;;;;1.27;1.17;;;11.10;99.90;;;;;;4951822;28;20031;-81
2023/09/23 03:39:42;;;;;;;1.17;1.00;;;11.10;99.90;;;;;;4975455;28;20023;-80
2023/09/23 03:42:09;;;;;;;1.75;1.00;;;11.10;99.90;;;;;;4968119;28;20042;-79
2023/09/23 03:44:35;;;;;;;3.50;1.10;;;11.10;99.90;;;;;;4965476;28;20502;-80
2023/09/23 03:47:01;;;;;;;1.27;1.00;;;11.10;99.90;;;;;;4971846;28;20039;-80
2023/09/23 03:49:28;;;;;;;1.20;1.10;;;11.10;99.90;;;;;;4953093;28;20082;-81
2023/09/23 03:51:54;;;;;;;1.45;0.80;;;11.10;99.90;;;;;;4960055;28;20099;-81
2023/09/23 03:54:20;;;;;;;1.30;1.00;;;11.10;99.90;;;;;;4968754;28;20031;-81
2023/09/23 03:56:46;;;;;;;2.47;1.15;;;11.10;99.90;;;;;;4986919;28;20415;-81
2023/09/23 03:59:12;;;;;;;2.28;1.10;;;11.10;99.90;;;;;;4977733;28;20118;-81
2023/09/23 04:01:39;;;;;;;1.83;1.00;;;11.10;99.90;;;;;;4970072;28;20110;-81
2023/09/23 04:04:07;;;;;;;1.33;1.23;;;11.10;99.90;;;;;;4954518;28;20173;-81
2023/09/23 04:06:33;;;;;;;1.90;0.90;;;11.10;99.90;;;;;;4942263;28;20467;-82
2023/09/23 04:08:59;;;;;;;1.17;1.08;;;11.10;99.90;;;;;;4976754;28;20108;-83
2023/09/23 04:11:28;;;;;;;1.30;0.93;;;11.20;99.90;;;;;;4955419;28;20045;-81
2023/09/23 04:13:54;;;;;;;1.40;0.93;;;11.20;99.90;;;;;;4974519;28;20395;-82
2023/09/23 04:16:20;;;;;;;4.05;1.42;;;11.20;99.90;;;;;;4975566;28;20570;-80
2023/09/23 04:18:46;;;;;;;0.95;0.70;;;11.20;99.90;;;;;;4975783;28;20073;-80
2023/09/23 04:21:13;;;;;;;2.90;1.05;;;11.20;99.90;;;;;;4960573;28;20138;-79
2023/09/23 04:23:39;;;;;;;1.48;1.00;;;11.20;99.90;;;;;;4972465;28;20053;-81
2023/09/23 04:26:05;;;;;;;1.55;1.17;;;11.20;99.90;;;;;;4976080;28;20492;-80
2023/09/23 04:28:31;;;;;;;5.03;1.27;;;11.20;99.90;;;;;;4982137;28;20404;-81
2023/09/23 04:30:57;;;;;;;2.28;1.10;;;11.20;99.90;;;;;;4975239;28;20034;-82
2023/09/23 04:33:27;;;;;;;1.23;1.13;;;11.20;99.90;;;;;;4975738;28;20121;-82
2023/09/23 04:35:56;;;;;;;3.58;1.00;;;11.20;99.90;;;;;;4976414;28;20047;-80
2023/09/23 04:38:23;;;;;;;2.10;1.50;;;11.20;99.90;;;;;;4975382;28;20042;-80
2023/09/23 04:40:49;;;;;;;1.42;0.95;;;11.20;99.90;;;;;;4972981;28;20550;-82
2023/09/23 04:43:16;;;;;;;3.05;0.90;;;11.10;99.90;;;;;;4978746;28;20046;-80
2023/09/23 04:45:42;;;;;;;5.43;1.10;;;11.20;99.90;;;;;;4975135;28;20555;-82
2023/09/23 04:48:08;;;;;;;1.42;0.90;;;11.10;99.90;;;;;;4977054;28;20035;-83
2023/09/23 04:50:35;;;;;;;0.98;0.93;;;11.10;99.90;;;;;;4972193;28;20049;-81
2023/09/23 04:53:02;;;;;;;2.55;0.90;;;11.10;99.90;;;;;;4955641;28;20042;-81
2023/09/23 04:55:28;;;;;;;1.73;1.00;;;11.10;99.90;;;;;;4977733;28;20043;-79
2023/09/23 04:57:55;;;;;;;1.75;1.02;;;11.10;99.90;;;;;;4977900;28;20042;-82
2023/09/23 05:00:22;;;;;;;1.25;0.80;;;11.10;99.90;;;;;;4974507;28;20531;-78
2023/09/23 05:02:51;;;;;;;1.15;0.70;;;11.10;99.90;;;;;;4962618;28;20034;-79
2023/09/23 05:05:18;;;;;;;1.55;0.88;;;11.20;99.90;;;;;;4982807;28;20423;-83
2023/09/23 05:07:45;;;;;;;1.30;0.98;;;11.20;99.90;;;;;;4976372;28;20035;-81
2023/09/23 05:10:12;;;;;;;0.82;0.50;;;11.20;99.90;;;;;;4975476;28;20037;-81
2023/09/23 05:12:39;;;;;;;1.58;1.13;;;11.20;99.90;;;;;;4983948;28;20022;-80
2023/09/23 05:15:09;;;;;;;2.45;0.90;;;11.20;99.90;;;;;;4943039;28;20051;-79
2023/09/23 05:17:38;;;;;;;1.65;0.70;;;11.20;99.90;;;;;;4975525;28;20530;-79
2023/09/23 05:20:21;;;;;;;1.63;0.80;;;11.10;99.90;;;;;;4976789;28;20038;-79
2023/09/23 05:22:48;;;;;;;0.50;0.50;;;11.20;99.90;;;;;;4975877;28;20043;-79
2023/09/23 05:25:15;;;;;;;1.08;0.82;;;11.20;99.90;;;;;;4979150;28;20467;-79
2023/09/23 05:27:42;;;;;;;1.00;0.70;;;11.10;99.90;;;;;;4990839;28;20513;-80
2023/09/23 05:30:08;;;;;;;2.78;0.80;;;11.10;99.90;;;;;;4980105;28;20079;-79
2023/09/23 05:32:38;;;;;;;1.23;0.60;;;11.10;99.90;;;;;;4985175;28;20035;-82
2023/09/23 05:35:09;;;;;;;0.85;0.70;;;11.10;99.90;;;;;;4975211;28;20066;-81
2023/09/23 05:37:35;;;;;;;0.55;0.55;;;11.10;99.90;;;;;;4968166;28;20031;-81
2023/09/23 05:40:01;;;;;;;1.75;0.60;;;11.10;99.90;;;;;;4977211;28;20496;-79
2023/09/23 05:42:30;;;;;;;1.65;0.60;;;11.10;99.90;;;;;;4981893;28;20098;-82
2023/09/23 05:44:56;;;;;;;1.27;0.70;;;11.10;99.90;;;;;;4975147;28;20042;-81
2023/09/23 05:47:23;;;;;;;0.88;0.60;;;11.10;99.90;;;;;;4975955;28;20033;-82
2023/09/23 05:49:48;;;;;;;0.82;0.50;;;11.10;99.90;;;;;;4974072;28;20027;-82
2023/09/23 05:52:14;;;;;;;0.52;0.50;;;11.10;99.90;;;;;;4982483;28;20349;-81
2023/09/23 05:54:40;;;;;;;0.68;0.50;;;11.10;99.90;;;;;;4978611;28;20105;-80
2023/09/23 05:57:06;;;;;;;0.57;0.57;;;11.10;99.90;;;;;;4958240;28;20031;-82
2023/09/23 05:59:31;;;;;;;2.55;0.52;;;11.10;99.90;;;;;;4976854;28;20411;-81
2023/09/23 06:01:57;;;;;;;0.68;0.50;;;11.10;99.90;;;;;;4974969;28;20046;-80
2023/09/23 06:04:23;;;;;;;1.42;1.08;;;11.10;99.90;;;;;;4972858;28;20194;-81
2023/09/23 06:06:49;;;;;;;0.52;0.47;;;11.10;99.90;;;;;;4940400;28;20035;-79
2023/09/23 06:09:15;;;;;;;0.85;0.43;;;11.10;99.90;;;;;;4954056;28;20131;-82
2023/09/23 06:11:43;;;;;;;1.35;0.50;;;11.10;99.90;;;;;;4955503;28;20154;-81
2023/09/23 06:14:10;;;;;;;0.93;0.52;;;11.20;99.90;;;;;;4972189;28;20050;-82
2023/09/23 06:16:35;;;;;;;0.50;0.50;;;11.20;99.90;;;;;;4973566;28;20038;-80
2023/09/23 06:19:01;;;;;;;1.20;0.70;;;11.20;99.90;;;;;;4961135;28;20062;-80
2023/09/23 06:21:29;;;;;;;0.60;0.60;;;11.30;99.90;;;;;;4982220;28;20034;-78
2023/09/23 06:23:54;;;;;;;1.55;0.60;;;11.30;99.90;;;;;;4979258;28;20436;-81
2023/09/23 06:26:20;;;;;;;1.75;0.50;;;11.30;99.90;;;;;;4955062;28;20053;-80
2023/09/23 06:28:46;;;;;;;0.70;0.50;;;11.30;99.90;;;;;;4949699;28;20034;-81
2023/09/23 06:31:12;;;;;;;2.75;0.60;;;11.30;99.90;;;;;;4942072;28;20042;-79
2023/09/23 06:33:37;;;;;;;0.75;0.45;;;11.30;99.90;;;;;;4972741;28;20066;-79
2023/09/23 06:36:04;;;;;;;0.93;0.50;;;11.30;99.90;;;;;;4966908;28;20042;-81
2023/09/23 06:38:31;;;;;;;0.40;0.40;;;11.30;99.90;;;;;;4968601;28;20416;-82
2023/09/23 06:40:57;;;;;;;0.40;0.40;;;11.30;99.90;;;;;;4977472;28;20121;-79
2023/09/23 06:43:23;;;;;;;1.33;0.63;;;11.30;99.90;;;;;;4974886;28;20073;-79
2023/09/23 06:45:58;;;;;;;0.60;0.50;;;11.30;99.90;;;;;;4973781;28;20090;-79
2023/09/23 06:48:25;;;;;;;1.88;0.60;;;11.40;99.90;;;;;;4971265;28;20035;-79
2023/09/23 06:50:58;;;;;;;1.42;0.50;;;11.40;99.90;;;;;;4979106;28;20387;-79
2023/09/23 06:53:24;;;;;;;0.65;0.65;;;11.40;99.90;;;;;;4977800;28;20031;-79
2023/09/23 06:55:50;;;;;;;0.57;0.47;;;11.40;99.90;;;;;;4982511;28;20322;-78
2023/09/23 06:58:16;;;;;;;1.20;0.50;;;11.50;99.90;;;;;;4978885;28;20031;-79
2023/09/23 07:00:42;;;;;;;3.03;0.52;;;11.50;99.90;;;;;;4973752;28;20062;-79
2023/09/23 07:03:08;;;;;;;2.58;0.60;;;11.50;99.90;;;;;;4960567;28;20043;-78
2023/09/23 07:05:37;;;;;;;0.68;0.50;;;11.50;99.90;;;;;;4978005;28;20042;-78
2023/09/23 07:08:03;;;;;;;0.73;0.68;;;11.50;99.90;;;;;;4973500;28;20031;-80
2023/09/23 07:10:32;;;;;;;0.50;0.50;;;11.50;99.90;;;;;;4975553;28;20058;-79
2023/09/23 07:12:58;;;;;;;0.50;0.45;;;11.60;99.90;;;;;;4984451;28;20668;-78
2023/09/23 07:15:24;;;;;;;1.50;0.63;;;11.70;99.90;;;;;;4981907;28;20043;-78
2023/09/23 07:17:50;;;;;;;1.63;0.52;;;12.00;99.90;;;;;;4958828;28;20037;-82
2023/09/23 07:20:16;;;;;;;2.25;0.70;;;12.10;99.90;;;;;;4971874;28;20035;-81
2023/09/23 07:22:42;;;;;;;0.90;0.60;;;12.30;99.90;;;;;;4976923;28;20147;-78
2023/09/23 07:25:07;;;;;;;1.73;0.55;;;12.50;99.90;;;;;;4982167;28;20038;-79
2023/09/23 07:27:33;;;;;;;0.30;0.30;;;12.70;99.90;;;;;;4984653;28;20041;-78
2023/09/23 07:29:59;;;;;;;0.55;0.55;;;12.80;99.90;;;;;;4956408;28;20026;-79
2023/09/23 07:32:25;;;;;;;1.90;0.40;;;13.00;99.90;;;;;;4958674;28;20046;-79
2023/09/23 07:34:51;;;;;;;1.35;0.45;;;13.20;99.90;;;;;;4975710;28;20038;-81
2023/09/23 07:37:17;;;;;;;1.77;0.40;;;13.40;99.90;;;;;;4973803;28;20070;-79
2023/09/23 07:39:44;;;;;;;0.55;0.50;;;13.60;99.90;;;;;;4953843;28;20066;-80
2023/09/23 07:42:10;;;;;;;0.40;0.40;;;13.80;99.90;;;;;;4977458;28;20038;-80
2023/09/23 07:44:36;;;;;;;1.60;0.38;;;13.90;99.90;;;;;;4979972;28;20118;-79
2023/09/23 07:47:02;;;;;;;1.55;0.30;;;14.00;99.90;;;;;;4959068;28;20200;-81
2023/09/23 07:49:28;;;;;;;2.58;0.40;;;14.00;99.90;;;;;;4981898;28;20026;-82
2023/09/23 07:51:56;;;;;;;1.65;0.55;;;14.00;99.90;;;;;;4977067;28;20041;-81
2023/09/23 07:54:21;;;;;;;0.50;0.50;;;14.00;99.90;;;;;;4965039;28;20035;-78
2023/09/23 07:56:47;;;;;;;1.40;0.45;;;14.00;99.90;;;;;;4953344;28;20038;-81
2023/09/23 07:59:13;;;;;;;1.77;0.50;;;13.90;99.90;;;;;;4973690;28;20035;-81
2023/09/23 08:01:39;;;;;;;0.85;0.32;;;13.80;99.90;;;;;;4968754;28;20030;-78
2023/09/23 08:04:23;;;;;;;1.70;0.50;;;13.70;99.90;;;;;;4955539;28;20045;-80
2023/09/23 08:06:49;;;;;;;0.95;0.45;;;13.70;99.90;;;;;;4974737;28;20030;-81
2023/09/23 08:09:15;;;;;;;0.68;0.50;;;13.70;99.90;;;;;;4974369;28;20092;-81
2023/09/23 08:11:41;;;;;;;1.85;0.70;;;13.60;99.90;;;;;;4972072;28;20053;-81
2023/09/23 08:14:06;;;;;;;1.88;0.93;;;13.70;99.90;;;;;;4970673;28;20034;-80
2023/09/23 08:16:32;;;;;;;1.63;1.00;;;13.90;99.90;;;;;;4977894;28;20038;-80
2023/09/23 08:18:58;;;;;;;3.10;0.60;;;14.10;99.90;;;;;;4971045;28;20027;-81
2023/09/23 08:21:23;;;;;;;1.30;0.70;;;14.30;99.90;;;;;;4977795;28;20356;-83
2023/09/23 08:23:49;;;;;;;1.77;0.60;;;14.40;99.90;;;;;;4939725;28;20082;-80
2023/09/23 08:26:15;;;;;;;0.90;0.40;;;14.40;99.90;;;;;;4952550;28;20480;-81
2023/09/23 08:28:42;;;;;;;2.25;0.60;;;14.40;99.90;;;;;;4971826;28;20031;-80
2023/09/23 08:31:08;;;;;;;4.40;0.50;;;14.30;99.90;;;;;;4971274;28;20070;-81
2023/09/23 08:33:35;;;;;;;0.68;0.50;;;14.20;99.90;;;;;;4969652;28;20037;-81
2023/09/23 08:36:01;;;;;;;1.63;0.77;;;14.10;99.90;;;;;;4977704;28;20066;-81
2023/09/23 08:38:27;;;;;;;0.52;0.50;;;14.00;99.90;;;;;;4969960;28;20068;-81
2023/09/23 08:40:53;;;;;;;2.35;0.50;;;13.90;99.90;;;;;;4969884;28;20038;-81
2023/09/23 08:43:36;;;;;;;2.38;0.40;;;13.90;99.90;;;;;;4975968;28;20042;-82
2023/09/23 08:46:05;;;;;;;0.55;0.45;;;13.90;99.90;;;;;;4970965;28;20142;-82
2023/09/23 08:48:33;;;;;;;0.40;0.40;;;13.90;99.90;;;;;;4978612;28;20050;-81
2023/09/23 08:51:01;;;;;;;2.88;0.70;;;13.80;99.90;;;;;;4985699;28;20113;-83
2023/09/23 08:53:32;;;;;;;0.45;0.43;;;13.70;99.90;;;;;;4984795;28;20038;-83
2023/09/23 08:56:00;;;;;;;0.90;0.52;;;13.70;99.90;;;;;;4963008;28;20093;-81
2023/09/23 08:58:25;;;;;;;2.38;0.88;;;13.80;99.90;;;;;;4981670;28;20042;-81
2023/09/23 09:00:53;;;;;;;0.50;0.50;;;13.90;99.90;;;;;;4977420;28;20031;-81
2023/09/23 09:03:22;;;;;;;2.83;0.82;;;13.90;99.90;;;;;;4980774;28;20105;-81
2023/09/23 09:05:58;;;;;;;2.85;0.80;;;14.00;99.90;;;;;;4961041;28;20062;-80
2023/09/23 09:08:27;;;;;;;1.40;0.80;;;14.10;99.90;;;;;;4981468;28;20105;-81
2023/09/23 09:10:56;;;;;;;0.68;0.50;;;14.30;99.90;;;;;;4961364;28;20097;-80
2023/09/23 09:13:22;;;;;;;1.40;0.52;;;14.40;99.90;;;;;;4977558;28;20446;-80
2023/09/23 09:15:48;;;;;;;2.22;0.80;;;14.40;99.90;;;;;;4976349;28;20138;-81
2023/09/23 09:18:16;;;;;;;3.83;0.57;;;14.30;99.90;;;;;;4974464;28;20106;-81
2023/09/23 09:20:42;;;;;;;0.43;0.40;;;14.30;99.90;;;;;;4970400;28;20097;-81
2023/09/23 09:23:13;;;;;;;0.68;0.45;;;14.40;99.90;;;;;;4964863;28;20027;-82
2023/09/23 09:25:47;;;;;;;4.38;0.75;;;14.30;99.90;;;;;;4951956;28;20655;-83
2023/09/23 09:28:12;;;;;;;2.53;0.40;;;14.40;99.90;;;;;;4958148;28;20365;-83
2023/09/23 09:30:39;;;;;;;1.55;0.57;;;14.50;99.90;;;;;;4956273;28;20153;-83
2023/09/23 09:33:08;;;;;;;1.00;0.50;;;14.60;99.90;;;;;;4950126;28;20483;-82
2023/09/23 09:35:39;;;;;;;3.50;0.60;;;14.60;99.90;;;;;;4972961;28;20046;-83
2023/09/23 09:38:10;;;;;;;1.90;0.70;;;14.50;99.90;;;;;;4924645;28;20043;-81
2023/09/23 09:40:39;;;;;;;1.77;0.65;;;14.60;99.90;;;;;;4957858;28;20038;-82
2023/09/23 09:43:06;;;;;;;4.32;0.80;;;14.60;99.90;;;;;;4956799;28;20180;-81
2023/09/23 09:45:40;;;;;;;2.38;0.60;;;14.60;99.90;;;;;;4972907;28;20450;-82
2023/09/23 09:48:08;;;;;;;1.42;0.95;;;14.60;99.90;;;;;;4953567;28;20130;-82
2023/09/23 09:50:38;;;;;;;0.93;0.47;;;14.60;99.90;;;;;;4952502;28;20859;-81
2023/09/23 09:53:05;;;;;;;3.33;1.23;;;14.70;99.90;;;;;;4973468;28;20035;-80
2023/09/23 09:55:31;;;;;;;0.73;0.55;;;14.70;99.90;;;;;;4974609;28;20065;-80
2023/09/23 09:58:01;;;;;;;0.60;0.60;;;14.80;99.90;;;;;;4969296;28;20030;-83
2023/09/23 10:00:35;;;;;;;1.60;0.70;;;14.70;99.90;;;;;;4969845;28;20065;-82
2023/09/23 10:03:06;;;;;;;0.40;0.40;;;14.60;99.90;;;;;;4972464;28;20109;-84
2023/09/23 10:05:40;;;;;;;1.25;0.50;;;14.50;99.90;;;;;;4967264;28;20031;-80
2023/09/23 10:08:12;;;;;;;2.22;0.40;;;14.30;99.90;;;;;;4966557;28;20030;-79
2023/09/23 10:10:44;;;;;;;0.82;0.60;;;14.30;99.90;;;;;;4971262;28;20144;-80
2023/09/23 10:13:23;;;;;;;3.13;0.50;;;14.30;99.90;;;;;;4977712;28;20115;-84
2023/09/23 10:15:50;;;;;;;2.60;0.70;;;14.30;99.90;;;;;;4959515;28;20069;-83
2023/09/23 10:18:20;;;;;;;3.72;0.60;;;14.40;99.90;;;;;;4979667;28;20046;-81
2023/09/23 10:20:50;;;;;;;1.65;0.65;;;14.40;99.90;;;;;;4974866;28;20034;-82
2023/09/23 10:23:20;;;;;;;3.30;0.80;;;14.50;99.90;;;;;;4947456;28;20039;-83
2023/09/23 10:25:50;;;;;;;1.55;0.50;;;14.70;99.90;;;;;;4968794;28;20110;-80
2023/09/23 10:28:25;;;;;;;1.83;0.68;;;14.90;99.90;;;;;;4963145;28;20035;-80
2023/09/23 10:31:09;;;;;;;1.33;0.52;;;15.10;99.90;;;;;;4975784;28;20145;-81
2023/09/23 10:33:36;;;;;;;1.65;0.60;;;15.20;99.90;;;;;;4977449;28;20792;-82
2023/09/23 10:36:03;;;;;;;0.70;0.68;;;15.50;99.90;;;;;;4959839;28;20633;-82
2023/09/23 10:38:34;;;;;;;1.48;0.63;;;15.70;99.90;;;;;;4951741;28;20554;-81
2023/09/23 10:41:01;;;;;;;1.15;0.38;;;15.90;99.90;;;;;;4969967;28;20027;-80
2023/09/23 10:43:27;;;;;;;0.82;0.60;;;16.10;99.90;;;;;;4968706;28;20533;-83
2023/09/23 10:45:58;;;;;;;2.00;0.80;;;16.20;99.90;;;;;;4936471;28;20027;-80
2023/09/23 10:48:25;;;;;;;1.35;0.50;;;16.30;99.90;;;;;;4954580;28;20226;-81
2023/09/23 10:50:51;;;;;;;2.63;0.50;;;16.30;99.90;;;;;;4970428;28;20443;-81
2023/09/23 10:53:25;;;;;;;1.73;0.60;;;16.30;99.90;;;;;;4972043;28;20545;-81
2023/09/23 10:55:51;;;;;;;2.58;0.68;;;16.40;99.90;;;;;;4951232;28;20039;-83
2023/09/23 10:58:17;;;;;;;1.50;0.50;;;16.40;99.90;;;;;;4942829;28;20031;-82
2023/09/23 11:00:43;;;;;;;2.65;0.50;;;16.50;99.90;;;;;;4968845;28;20118;-82
2023/09/23 11:03:16;;;;;;;1.08;0.47;;;16.60;99.90;;;;;;4975311;28;20114;-81
2023/09/23 11:05:43;;;;;;;0.90;0.40;;;16.70;99.90;;;;;;4970123;28;20070;-82
2023/09/23 11:08:11;;;;;;;4.70;0.75;;;16.70;99.90;;;;;;4958797;28;20031;-81
2023/09/23 11:10:41;;;;;;;2.65;0.50;;;16.90;99.90;;;;;;4972023;28;20030;-81
2023/09/23 11:13:10;;;;;;;0.73;0.57;;;16.90;99.90;;;;;;4967846;28;20042;-81
2023/09/23 11:15:41;;;;;;;1.85;0.88;;;17.00;99.90;;;;;;4970589;28;20038;-82
2023/09/23 11:18:15;;;;;;;1.13;0.57;;;17.00;99.90;;;;;;4971982;28;20761;-81
2023/09/23 11:20:42;;;;;;;3.50;0.75;;;17.00;99.90;;;;;;4950592;28;20050;-80
2023/09/23 11:23:10;;;;;;;4.63;0.50;;;17.00;99.90;;;;;;4963502;28;20038;-84
2023/09/23 11:25:44;;;;;;;2.53;0.70;;;16.80;99.90;;;;;;4977855;28;20034;-82
2023/09/23 11:28:21;;;;;;;1.75;0.65;;;16.70;99.90;;;;;;4959871;28;20110;-81
2023/09/23 11:30:49;;;;;;;1.10;0.55;;;16.50;99.90;;;;;;4971068;28;20023;-81
2023/09/23 11:33:15;;;;;;;1.48;0.35;;;16.30;99.90;;;;;;4985046;28;20035;-82
2023/09/23 11:35:42;;;;;;;1.20;0.60;;;16.20;99.90;;;;;;4974788;28;20031;-82
2023/09/23 11:38:08;;;;;;;0.98;0.70;;;16.10;99.90;;;;;;4956094;28;20034;-81
2023/09/23 11:40:34;;;;;;;1.08;0.50;;;16.10;99.90;;;;;;4975699;28;20027;-82
2023/09/23 11:43:03;;;;;;;0.82;0.55;;;16.10;99.90;;;;;;4953453;28;20031;-83
2023/09/23 11:45:30;;;;;;;1.63;0.63;;;16.10;99.90;;;;;;4956535;28;20419;-83
2023/09/23 11:47:56;;;;;;;3.35;0.70;;;16.10;99.90;;;;;;4976627;28;20014;-82
2023/09/23 11:50:23;;;;;;;1.13;0.90;;;16.10;99.90;;;;;;4956029;28;20034;-81
2023/09/23 11:52:49;;;;;;;0.70;0.50;;;16.10;99.90;;;;;;4955974;28;20150;-81
2023/09/23 11:55:16;;;;;;;2.05;0.60;;;16.20;99.90;;;;;;4955391;28;20027;-80
2023/09/23 11:57:42;;;;;;;2.10;0.60;;;16.10;99.90;;;;;;4979031;28;20407;-79
2023/09/23 12:00:13;;;;;;;3.83;0.60;;;16.20;99.90;;;;;;4970065;28;20031;-79
2023/09/23 12:02:42;;;;;;;1.40;0.90;;;16.30;99.90;;;;;;4963430;28;20038;-81
2023/09/23 12:05:12;;;;;;;1.75;0.70;;;16.30;99.90;;;;;;4955077;28;20086;-81
2023/09/23 12:07:38;;;;;;;4.20;0.60;;;16.40;99.90;;;;;;4958001;28;20023;-81
2023/09/23 12:10:05;;;;;;;3.60;0.50;;;16.60;99.90;;;;;;4978290;28;20037;-79
2023/09/23 12:12:32;;;;;;;1.48;0.50;;;16.90;99.90;;;;;;4956739;28;20376;-81
2023/09/23 12:14:58;;;;;;;0.55;0.30;;;17.10;99.90;;;;;;4976886;28;20058;-81
2023/09/23 12:17:24;;;;;;;0.47;0.30;;;17.30;99.90;;;;;;4978219;28;20038;-82
2023/09/23 12:19:50;;;;;;;3.60;0.52;;;17.50;99.90;;;;;;4974679;28;20039;-83
2023/09/23 12:22:16;;;;;;;1.48;0.40;;;17.50;99.90;;;;;;4979396;28;20038;-83
2023/09/23 12:25:00;;;;;;;0.98;0.50;;;17.70;99.90;;;;;;4980238;28;20057;-80
2023/09/23 12:27:27;;;;;;;1.10;0.40;;;17.70;99.90;;;;;;4975739;28;20430;-83
2023/09/23 12:29:55;;;;;;;2.67;0.45;;;17.80;99.90;;;;;;4972774;28;20487;-83
2023/09/23 12:32:20;;;;;;;0.63;0.60;;;17.90;99.90;;;;;;4959238;28;20023;-81
2023/09/23 12:34:46;;;;;;;0.95;0.40;;;17.90;99.90;;;;;;4975411;28;20039;-82
2023/09/23 12:37:12;;;;;;;6.28;0.65;;;17.80;99.90;;;;;;4924793;28;20031;-82
2023/09/23 12:39:37;;;;;;;0.77;0.60;;;17.70;99.90;;;;;;4975022;28;20491;-82
2023/09/23 12:42:03;;;;;;;0.80;0.50;;;17.70;99.90;;;;;;4975025;28;20035;-83
2023/09/23 12:44:29;;;;;;;1.55;0.60;;;17.60;99.90;;;;;;4984982;28;20559;-83
2023/09/23 12:46:55;;;;;;;1.73;0.40;;;17.60;99.90;;;;;;4954902;28;20027;-83
2023/09/23 12:49:21;;;;;;;2.72;0.52;;;17.60;99.90;;;;;;4971031;28;20031;-82
2023/09/23 12:51:47;;;;;;;3.95;0.57;;;17.70;99.90;;;;;;4959586;28;20023;-82